Armonk, New York
Current Conditions -  °F | °C
As of 2:56 AM on Thursday 23 Oct 2014 (Local Time) from KHPN Reporting Station
Drizzle Drizzle  
Wind Chill: 51°   Ceiling: 2100
Heat Index: 51°   Visibility: 10mi
Dew Point: 46°   Wind: 15mph
Humidity: 83%   Direction: 350°N
Pressure: 29.69"   Gusts: 26mph
Location:  41.13°N, 73.71°W
Report Text: KHPN 230656Z 35013G23KT 10SM -DZ FEW017 BKN021 11/08 A2969 RMK AO2 RAB44E52DZB52 SLP054 P0000 T01060078
Loading
Personal Weather Stations






























Interactive Weather Map
Tropical Storm Tracking
New forecast layout! Learn more

10-Day Weather Forecast

Advertisements
Track Severe Weather on mobile